sensor_id;sensor_type;location;lat;lon;timestamp;temperature;humidity
4643;DHT22;2334;48.710;9.622;2023-12-20T00:01:14;3.70;99.90
4643;DHT22;2334;48.710;9.622;2023-12-20T00:03:41;3.70;99.90
4643;DHT22;2334;48.710;9.622;2023-12-20T00:06:08;3.70;99.90
4643;DHT22;2334;48.710;9.622;2023-12-20T00:08:35;3.80;99.90
4643;DHT22;2334;48.710;9.622;2023-12-20T00:11:02;3.80;99.90
4643;DHT22;2334;48.710;9.622;2023-12-20T00:13:29;3.80;99.90
4643;DHT22;2334;48.710;9.622;2023-12-20T00:15:55;3.90;99.90
4643;DHT22;2334;48.710;9.622;2023-12-20T00:18:24;3.90;99.90
4643;DHT22;2334;48.710;9.622;2023-12-20T00:20:50;3.90;99.90
4643;DHT22;2334;48.710;9.622;2023-12-20T00:23:17;4.00;99.90
4643;DHT22;2334;48.710;9.622;2023-12-20T00:25:44;4.20;99.90
4643;DHT22;2334;48.710;9.622;2023-12-20T00:28:11;4.20;99.90
4643;DHT22;2334;48.710;9.622;2023-12-20T00:30:38;4.20;99.90
4643;DHT22;2334;48.710;9.622;2023-12-20T00:33:05;4.30;99.90
4643;DHT22;2334;48.710;9.622;2023-12-20T00:35:33;4.40;99.90
4643;DHT22;2334;48.710;9.622;2023-12-20T00:38:00;4.50;99.90
4643;DHT22;2334;48.710;9.622;2023-12-20T00:40:27;4.50;99.90
4643;DHT22;2334;48.710;9.622;2023-12-20T00:42:54;4.70;99.90
4643;DHT22;2334;48.710;9.622;2023-12-20T00:45:21;4.90;99.90
4643;DHT22;2334;48.710;9.622;2023-12-20T00:47:48;5.00;99.90
4643;DHT22;2334;48.710;9.622;2023-12-20T00:50:15;5.10;99.90
4643;DHT22;2334;48.710;9.622;2023-12-20T00:52:43;5.10;99.90
4643;DHT22;2334;48.710;9.622;2023-12-20T00:55:10;5.10;99.90
4643;DHT22;2334;48.710;9.622;2023-12-20T00:57:36;5.20;99.90
4643;DHT22;2334;48.710;9.622;2023-12-20T01:00:04;5.20;99.90
4643;DHT22;2334;48.710;9.622;2023-12-20T01:02:32;5.10;99.90
4643;DHT22;2334;48.710;9.622;2023-12-20T01:04:59;5.10;99.90
4643;DHT22;2334;48.710;9.622;2023-12-20T01:07:26;5.00;99.90
4643;DHT22;2334;48.710;9.622;2023-12-20T01:09:54;5.00;99.90
4643;DHT22;2334;48.710;9.622;2023-12-20T01:12:21;5.00;99.90
4643;DHT22;2334;48.710;9.622;2023-12-20T01:14:48;4.90;99.90
4643;DHT22;2334;48.710;9.622;2023-12-20T01:17:15;4.90;99.90
4643;DHT22;2334;48.710;9.622;2023-12-20T01:19:41;4.80;99.90
4643;DHT22;2334;48.710;9.622;2023-12-20T01:22:08;4.80;99.90
4643;DHT22;2334;48.710;9.622;2023-12-20T01:24:35;4.80;99.90
4643;DHT22;2334;48.710;9.622;2023-12-20T01:27:04;4.80;99.90
4643;DHT22;2334;48.710;9.622;2023-12-20T01:29:30;4.90;99.90
4643;DHT22;2334;48.710;9.622;2023-12-20T01:31:57;4.90;99.90
4643;DHT22;2334;48.710;9.622;2023-12-20T01:34:24;4.90;99.90
4643;DHT22;2334;48.710;9.622;2023-12-20T01:36:51;5.00;99.90
4643;DHT22;2334;48.710;9.622;2023-12-20T01:39:18;5.00;99.90
4643;DHT22;2334;48.710;9.622;2023-12-20T01:41:45;4.90;99.90
4643;DHT22;2334;48.710;9.622;2023-12-20T01:44:13;4.90;99.90
4643;DHT22;2334;48.710;9.622;2023-12-20T01:46:40;4.90;99.90
4643;DHT22;2334;48.710;9.622;2023-12-20T01:49:08;4.90;99.90
4643;DHT22;2334;48.710;9.622;2023-12-20T01:51:36;4.90;99.90
4643;DHT22;2334;48.710;9.622;2023-12-20T01:54:03;4.90;99.90
4643;DHT22;2334;48.710;9.622;2023-12-20T01:56:31;4.90;99.90
4643;DHT22;2334;48.710;9.622;2023-12-20T01:58:58;5.00;99.90
4643;DHT22;2334;48.710;9.622;2023-12-20T02:01:28;5.00;99.90
4643;DHT22;2334;48.710;9.622;2023-12-20T02:03:55;4.90;99.90
4643;DHT22;2334;48.710;9.622;2023-12-20T02:06:23;4.90;99.90
4643;DHT22;2334;48.710;9.622;2023-12-20T02:08:51;4.90;99.90
4643;DHT22;2334;48.710;9.622;2023-12-20T02:11:18;4.90;99.90
4643;DHT22;2334;48.710;9.622;2023-12-20T02:13:44;5.00;99.90
4643;DHT22;2334;48.710;9.622;2023-12-20T02:16:11;5.00;99.90
4643;DHT22;2334;48.710;9.622;2023-12-20T02:18:40;5.10;99.90
4643;DHT22;2334;48.710;9.622;2023-12-20T02:21:09;5.00;99.90
4643;DHT22;2334;48.710;9.622;2023-12-20T02:23:38;5.10;99.90
4643;DHT22;2334;48.710;9.622;2023-12-20T02:26:04;5.10;99.90
4643;DHT22;2334;48.710;9.622;2023-12-20T02:28:32;5.10;99.90
4643;DHT22;2334;48.710;9.622;2023-12-20T02:30:59;5.20;99.90
4643;DHT22;2334;48.710;9.622;2023-12-20T02:33:25;5.20;99.90
4643;DHT22;2334;48.710;9.622;2023-12-20T02:35:52;5.30;99.90
4643;DHT22;2334;48.710;9.622;2023-12-20T02:38:19;5.30;99.90
4643;DHT22;2334;48.710;9.622;2023-12-20T02:40:47;5.30;99.90
4643;DHT22;2334;48.710;9.622;2023-12-20T02:43:14;5.30;99.90
4643;DHT22;2334;48.710;9.622;2023-12-20T02:45:41;5.30;99.90
4643;DHT22;2334;48.710;9.622;2023-12-20T02:48:08;5.40;99.90
4643;DHT22;2334;48.710;9.622;2023-12-20T02:50:34;5.30;99.90
4643;DHT22;2334;48.710;9.622;2023-12-20T02:53:01;5.40;99.90
4643;DHT22;2334;48.710;9.622;2023-12-20T02:55:28;5.40;99.90
4643;DHT22;2334;48.710;9.622;2023-12-20T02:57:56;5.30;99.90
4643;DHT22;2334;48.710;9.622;2023-12-20T03:00:23;5.30;99.90
4643;DHT22;2334;48.710;9.622;2023-12-20T03:02:50;5.30;99.90
4643;DHT22;2334;48.710;9.622;2023-12-20T03:05:17;5.20;99.90
4643;DHT22;2334;48.710;9.622;2023-12-20T03:07:44;5.30;99.90
4643;DHT22;2334;48.710;9.622;2023-12-20T03:10:11;5.20;99.90
4643;DHT22;2334;48.710;9.622;2023-12-20T03:12:38;5.20;99.90
4643;DHT22;2334;48.710;9.622;2023-12-20T03:15:07;5.30;99.90
4643;DHT22;2334;48.710;9.622;2023-12-20T03:17:34;5.30;99.90
4643;DHT22;2334;48.710;9.622;2023-12-20T03:20:01;5.30;99.90
4643;DHT22;2334;48.710;9.622;2023-12-20T03:22:27;5.40;99.90
4643;DHT22;2334;48.710;9.622;2023-12-20T03:24:55;5.40;99.90
4643;DHT22;2334;48.710;9.622;2023-12-20T03:27:22;5.30;99.90
4643;DHT22;2334;48.710;9.622;2023-12-20T03:29:49;5.30;99.90
4643;DHT22;2334;48.710;9.622;2023-12-20T03:32:17;5.30;99.90
4643;DHT22;2334;48.710;9.622;2023-12-20T03:34:44;5.30;99.90
4643;DHT22;2334;48.710;9.622;2023-12-20T03:37:11;5.30;99.90
4643;DHT22;2334;48.710;9.622;2023-12-20T03:39:38;5.40;99.90
4643;DHT22;2334;48.710;9.622;2023-12-20T03:42:05;5.30;99.90
4643;DHT22;2334;48.710;9.622;2023-12-20T03:44:32;5.40;99.90
4643;DHT22;2334;48.710;9.622;2023-12-20T03:46:58;5.40;99.90
4643;DHT22;2334;48.710;9.622;2023-12-20T03:49:27;5.40;99.90
4643;DHT22;2334;48.710;9.622;2023-12-20T03:51:53;5.40;99.90
4643;DHT22;2334;48.710;9.622;2023-12-20T03:54:20;5.40;99.90
4643;DHT22;2334;48.710;9.622;2023-12-20T03:56:47;5.40;99.90
4643;DHT22;2334;48.710;9.622;2023-12-20T03:59:14;5.30;99.90
4643;DHT22;2334;48.710;9.622;2023-12-20T04:01:43;5.30;99.90
4643;DHT22;2334;48.710;9.622;2023-12-20T04:04:10;5.40;99.90
4643;DHT22;2334;48.710;9.622;2023-12-20T04:06:38;5.30;99.90
4643;DHT22;2334;48.710;9.622;2023-12-20T04:09:05;5.30;99.90
4643;DHT22;2334;48.710;9.622;2023-12-20T04:11:33;5.30;99.90
4643;DHT22;2334;48.710;9.622;2023-12-20T04:14:00;5.30;99.90
4643;DHT22;2334;48.710;9.622;2023-12-20T04:16:27;5.30;99.90
4643;DHT22;2334;48.710;9.622;2023-12-20T04:18:53;5.30;99.90
4643;DHT22;2334;48.710;9.622;2023-12-20T04:21:20;5.30;99.90
4643;DHT22;2334;48.710;9.622;2023-12-20T04:23:49;5.30;99.90
4643;DHT22;2334;48.710;9.622;2023-12-20T04:26:15;5.30;99.90
4643;DHT22;2334;48.710;9.622;2023-12-20T04:28:43;5.30;99.90
4643;DHT22;2334;48.710;9.622;2023-12-20T04:31:10;5.30;99.90
4643;DHT22;2334;48.710;9.622;2023-12-20T04:33:36;5.30;99.90
4643;DHT22;2334;48.710;9.622;2023-12-20T04:36:04;5.30;99.90
4643;DHT22;2334;48.710;9.622;2023-12-20T04:38:31;5.30;99.90
4643;DHT22;2334;48.710;9.622;2023-12-20T04:40:59;5.30;99.90
4643;DHT22;2334;48.710;9.622;2023-12-20T04:43:26;5.30;99.90
4643;DHT22;2334;48.710;9.622;2023-12-20T04:45:53;5.30;99.90
4643;DHT22;2334;48.710;9.622;2023-12-20T04:48:20;5.30;99.90
4643;DHT22;2334;48.710;9.622;2023-12-20T04:50:47;5.30;99.90
4643;DHT22;2334;48.710;9.622;2023-12-20T04:53:14;5.30;99.90
4643;DHT22;2334;48.710;9.622;2023-12-20T04:55:41;5.30;99.90
4643;DHT22;2334;48.710;9.622;2023-12-20T04:58:09;5.30;99.90
4643;DHT22;2334;48.710;9.622;2023-12-20T05:00:36;5.30;99.90
4643;DHT22;2334;48.710;9.622;2023-12-20T05:03:03;5.30;99.90
4643;DHT22;2334;48.710;9.622;2023-12-20T05:05:30;5.30;99.90
4643;DHT22;2334;48.710;9.622;2023-12-20T05:07:57;5.30;99.90
4643;DHT22;2334;48.710;9.622;2023-12-20T05:10:24;5.30;99.90
4643;DHT22;2334;48.710;9.622;2023-12-20T05:12:52;5.30;99.90
4643;DHT22;2334;48.710;9.622;2023-12-20T05:15:20;5.40;99.90
4643;DHT22;2334;48.710;9.622;2023-12-20T05:17:47;5.30;99.90
4643;DHT22;2334;48.710;9.622;2023-12-20T05:20:14;5.30;99.90
4643;DHT22;2334;48.710;9.622;2023-12-20T05:22:41;5.30;99.90
4643;DHT22;2334;48.710;9.622;2023-12-20T05:25:08;5.30;99.90
4643;DHT22;2334;48.710;9.622;2023-12-20T05:27:35;5.20;99.90
4643;DHT22;2334;48.710;9.622;2023-12-20T05:30:02;5.30;99.90
4643;DHT22;2334;48.710;9.622;2023-12-20T05:32:31;5.20;99.90
4643;DHT22;2334;48.710;9.622;2023-12-20T05:34:58;5.30;99.90
4643;DHT22;2334;48.710;9.622;2023-12-20T05:37:25;5.30;99.90
4643;DHT22;2334;48.710;9.622;2023-12-20T05:39:52;5.30;99.90
4643;DHT22;2334;48.710;9.622;2023-12-20T05:42:19;5.20;99.90
4643;DHT22;2334;48.710;9.622;2023-12-20T05:44:45;5.20;99.90
4643;DHT22;2334;48.710;9.622;2023-12-20T05:47:12;5.20;99.90
4643;DHT22;2334;48.710;9.622;2023-12-20T05:49:41;5.20;99.90
4643;DHT22;2334;48.710;9.622;2023-12-20T05:52:08;5.20;99.90
4643;DHT22;2334;48.710;9.622;2023-12-20T05:54:35;5.20;99.90
4643;DHT22;2334;48.710;9.622;2023-12-20T05:57:02;5.20;99.90
4643;DHT22;2334;48.710;9.622;2023-12-20T05:59:28;5.20;99.90
4643;DHT22;2334;48.710;9.622;2023-12-20T06:01:55;5.20;99.90
4643;DHT22;2334;48.710;9.622;2023-12-20T06:04:22;5.20;99.90
4643;DHT22;2334;48.710;9.622;2023-12-20T06:06:50;5.10;99.90
4643;DHT22;2334;48.710;9.622;2023-12-20T06:09:17;5.20;99.90
4643;DHT22;2334;48.710;9.622;2023-12-20T06:11:45;5.20;99.90
4643;DHT22;2334;48.710;9.622;2023-12-20T06:14:11;5.20;99.90
4643;DHT22;2334;48.710;9.622;2023-12-20T06:16:38;5.20;99.90
4643;DHT22;2334;48.710;9.622;2023-12-20T06:19:05;5.20;99.90
4643;DHT22;2334;48.710;9.622;2023-12-20T06:21:32;5.20;99.90
4643;DHT22;2334;48.710;9.622;2023-12-20T06:24:00;5.20;99.90
4643;DHT22;2334;48.710;9.622;2023-12-20T06:26:27;5.10;99.90
4643;DHT22;2334;48.710;9.622;2023-12-20T06:28:54;5.10;99.90
4643;DHT22;2334;48.710;9.622;2023-12-20T06:31:21;5.10;99.90
4643;DHT22;2334;48.710;9.622;2023-12-20T06:33:47;5.10;99.90
4643;DHT22;2334;48.710;9.622;2023-12-20T06:36:22;5.10;99.90
4643;DHT22;2334;48.710;9.622;2023-12-20T06:38:49;5.10;99.90
4643;DHT22;2334;48.710;9.622;2023-12-20T06:41:18;5.10;99.90
4643;DHT22;2334;48.710;9.622;2023-12-20T06:43:45;5.10;99.90
4643;DHT22;2334;48.710;9.622;2023-12-20T06:46:12;5.10;99.90
4643;DHT22;2334;48.710;9.622;2023-12-20T06:48:39;5.00;99.90
4643;DHT22;2334;48.710;9.622;2023-12-20T06:51:06;5.10;99.90
4643;DHT22;2334;48.710;9.622;2023-12-20T06:53:33;5.10;99.90
4643;DHT22;2334;48.710;9.622;2023-12-20T06:56:00;5.10;99.90
4643;DHT22;2334;48.710;9.622;2023-12-20T06:58:29;5.10;99.90
4643;DHT22;2334;48.710;9.622;2023-12-20T07:00:56;5.10;99.90
4643;DHT22;2334;48.710;9.622;2023-12-20T07:03:23;5.10;99.90
4643;DHT22;2334;48.710;9.622;2023-12-20T07:05:50;5.10;99.90
4643;DHT22;2334;48.710;9.622;2023-12-20T07:08:17;5.10;99.90
4643;DHT22;2334;48.710;9.622;2023-12-20T07:10:44;5.10;99.90
4643;DHT22;2334;48.710;9.622;2023-12-20T07:13:12;5.10;99.90
4643;DHT22;2334;48.710;9.622;2023-12-20T07:15:41;5.10;99.90
4643;DHT22;2334;48.710;9.622;2023-12-20T07:18:08;5.10;99.90
4643;DHT22;2334;48.710;9.622;2023-12-20T07:20:35;5.00;99.90
4643;DHT22;2334;48.710;9.622;2023-12-20T07:23:02;5.00;99.90
4643;DHT22;2334;48.710;9.622;2023-12-20T07:25:29;5.10;99.90
4643;DHT22;2334;48.710;9.622;2023-12-20T07:27:58;5.10;99.90
4643;DHT22;2334;48.710;9.622;2023-12-20T07:30:24;5.00;99.90
4643;DHT22;2334;48.710;9.622;2023-12-20T07:32:53;5.00;99.90
4643;DHT22;2334;48.710;9.622;2023-12-20T07:35:19;5.00;99.90
4643;DHT22;2334;48.710;9.622;2023-12-20T07:37:46;5.10;99.90
4643;DHT22;2334;48.710;9.622;2023-12-20T07:40:13;5.00;99.90
4643;DHT22;2334;48.710;9.622;2023-12-20T07:42:42;5.10;99.90
4643;DHT22;2334;48.710;9.622;2023-12-20T07:45:09;5.10;99.90
4643;DHT22;2334;48.710;9.622;2023-12-20T07:47:37;5.10;99.90
4643;DHT22;2334;48.710;9.622;2023-12-20T07:50:06;5.10;99.90
4643;DHT22;2334;48.710;9.622;2023-12-20T07:52:33;5.10;99.90
4643;DHT22;2334;48.710;9.622;2023-12-20T07:54:59;5.00;99.90
4643;DHT22;2334;48.710;9.622;2023-12-20T07:57:29;5.10;99.90
4643;DHT22;2334;48.710;9.622;2023-12-20T07:59:56;5.00;99.90
4643;DHT22;2334;48.710;9.622;2023-12-20T08:02:23;5.10;99.90
4643;DHT22;2334;48.710;9.622;2023-12-20T08:04:49;5.10;99.90
4643;DHT22;2334;48.710;9.622;2023-12-20T08:07:18;5.10;99.90
4643;DHT22;2334;48.710;9.622;2023-12-20T08:09:45;5.10;99.90
4643;DHT22;2334;48.710;9.622;2023-12-20T08:12:12;5.10;99.90
4643;DHT22;2334;48.710;9.622;2023-12-20T08:14:39;5.10;99.90
4643;DHT22;2334;48.710;9.622;2023-12-20T08:17:05;5.20;99.90
4643;DHT22;2334;48.710;9.622;2023-12-20T08:19:32;5.20;99.90
4643;DHT22;2334;48.710;9.622;2023-12-20T08:21:59;5.20;99.90
4643;DHT22;2334;48.710;9.622;2023-12-20T08:24:27;5.20;99.90
4643;DHT22;2334;48.710;9.622;2023-12-20T08:26:54;5.20;99.90
4643;DHT22;2334;48.710;9.622;2023-12-20T08:29:21;5.20;99.90
4643;DHT22;2334;48.710;9.622;2023-12-20T08:31:52;5.20;99.90
4643;DHT22;2334;48.710;9.622;2023-12-20T08:34:19;5.20;99.90
4643;DHT22;2334;48.710;9.622;2023-12-20T08:36:46;5.20;99.90
4643;DHT22;2334;48.710;9.622;2023-12-20T08:39:13;5.20;99.90
4643;DHT22;2334;48.710;9.622;2023-12-20T08:41:41;5.20;99.90
4643;DHT22;2334;48.710;9.622;2023-12-20T08:44:08;5.20;99.90
4643;DHT22;2334;48.710;9.622;2023-12-20T08:46:35;5.20;99.90
4643;DHT22;2334;48.710;9.622;2023-12-20T08:49:02;5.30;99.90
4643;DHT22;2334;48.710;9.622;2023-12-20T08:51:29;5.30;99.90
4643;DHT22;2334;48.710;9.622;2023-12-20T08:53:56;5.30;99.90
4643;DHT22;2334;48.710;9.622;2023-12-20T08:56:23;5.30;99.90
4643;DHT22;2334;48.710;9.622;2023-12-20T08:58:51;5.40;99.90
4643;DHT22;2334;48.710;9.622;2023-12-20T09:01:18;5.30;99.90
4643;DHT22;2334;48.710;9.622;2023-12-20T09:03:45;5.40;99.90
4643;DHT22;2334;48.710;9.622;2023-12-20T09:06:12;5.40;99.90
4643;DHT22;2334;48.710;9.622;2023-12-20T09:08:38;5.40;99.90
4643;DHT22;2334;48.710;9.622;2023-12-20T09:11:06;5.50;99.90
4643;DHT22;2334;48.710;9.622;2023-12-20T09:13:33;5.40;99.90
4643;DHT22;2334;48.710;9.622;2023-12-20T09:16:03;5.50;99.90
4643;DHT22;2334;48.710;9.622;2023-12-20T09:18:29;5.50;99.90
4643;DHT22;2334;48.710;9.622;2023-12-20T09:20:56;5.50;99.90
4643;DHT22;2334;48.710;9.622;2023-12-20T09:23:23;5.50;99.90
4643;DHT22;2334;48.710;9.622;2023-12-20T09:25:50;5.50;99.90
4643;DHT22;2334;48.710;9.622;2023-12-20T09:28:17;5.50;99.90
4643;DHT22;2334;48.710;9.622;2023-12-20T09:30:44;5.50;99.90
4643;DHT22;2334;48.710;9.622;2023-12-20T09:33:14;5.50;99.90
4643;DHT22;2334;48.710;9.622;2023-12-20T09:35:41;5.50;99.90
4643;DHT22;2334;48.710;9.622;2023-12-20T09:38:09;5.50;99.90
4643;DHT22;2334;48.710;9.622;2023-12-20T09:40:36;5.40;99.90
4643;DHT22;2334;48.710;9.622;2023-12-20T09:43:10;5.40;99.90
4643;DHT22;2334;48.710;9.622;2023-12-20T09:45:38;5.50;99.90
4643;DHT22;2334;48.710;9.622;2023-12-20T09:48:07;5.40;99.90
4643;DHT22;2334;48.710;9.622;2023-12-20T09:50:37;5.50;99.90
4643;DHT22;2334;48.710;9.622;2023-12-20T09:53:05;5.40;99.90
4643;DHT22;2334;48.710;9.622;2023-12-20T09:55:36;5.40;99.90
4643;DHT22;2334;48.710;9.622;2023-12-20T09:58:03;5.40;99.90
4643;DHT22;2334;48.710;9.622;2023-12-20T10:00:31;5.40;99.90
4643;DHT22;2334;48.710;9.622;2023-12-20T10:02:59;5.40;99.90
4643;DHT22;2334;48.710;9.622;2023-12-20T10:05:28;5.40;99.90
4643;DHT22;2334;48.710;9.622;2023-12-20T10:07:56;5.40;99.90
4643;DHT22;2334;48.710;9.622;2023-12-20T10:10:23;5.40;99.90
4643;DHT22;2334;48.710;9.622;2023-12-20T10:13:04;5.40;99.90
4643;DHT22;2334;48.710;9.622;2023-12-20T10:15:32;5.30;99.90
4643;DHT22;2334;48.710;9.622;2023-12-20T10:17:59;5.30;99.90
4643;DHT22;2334;48.710;9.622;2023-12-20T10:20:27;5.40;99.90
4643;DHT22;2334;48.710;9.622;2023-12-20T10:22:57;5.40;99.90
4643;DHT22;2334;48.710;9.622;2023-12-20T10:25:24;5.40;99.90
4643;DHT22;2334;48.710;9.622;2023-12-20T10:28:08;5.40;99.90
4643;DHT22;2334;48.710;9.622;2023-12-20T10:30:36;5.40;99.90
4643;DHT22;2334;48.710;9.622;2023-12-20T10:33:03;5.40;99.90
4643;DHT22;2334;48.710;9.622;2023-12-20T10:35:31;5.30;99.90
4643;DHT22;2334;48.710;9.622;2023-12-20T10:38:03;5.40;99.90
4643;DHT22;2334;48.710;9.622;2023-12-20T10:40:30;5.40;99.90
4643;DHT22;2334;48.710;9.622;2023-12-20T10:42:59;5.50;99.90
4643;DHT22;2334;48.710;9.622;2023-12-20T10:45:27;5.80;99.90
4643;DHT22;2334;48.710;9.622;2023-12-20T10:47:55;5.80;99.90
4643;DHT22;2334;48.710;9.622;2023-12-20T10:50:23;5.90;99.90
4643;DHT22;2334;48.710;9.622;2023-12-20T10:52:50;5.90;99.90
4643;DHT22;2334;48.710;9.622;2023-12-20T10:55:22;6.00;99.90
4643;DHT22;2334;48.710;9.622;2023-12-20T10:57:50;6.00;99.90
4643;DHT22;2334;48.710;9.622;2023-12-20T11:00:18;6.00;99.90
4643;DHT22;2334;48.710;9.622;2023-12-20T11:02:45;5.90;99.90
4643;DHT22;2334;48.710;9.622;2023-12-20T11:05:22;5.90;99.90
4643;DHT22;2334;48.710;9.622;2023-12-20T11:07:54;5.80;99.90
4643;DHT22;2334;48.710;9.622;2023-12-20T11:10:28;5.80;99.90
4643;DHT22;2334;48.710;9.622;2023-12-20T11:13:01;5.90;99.90
4643;DHT22;2334;48.710;9.622;2023-12-20T11:15:30;5.80;99.90
4643;DHT22;2334;48.710;9.622;2023-12-20T11:17:58;5.80;99.90
4643;DHT22;2334;48.710;9.622;2023-12-20T11:20:35;5.90;99.90
4643;DHT22;2334;48.710;9.622;2023-12-20T11:23:03;6.00;99.90
4643;DHT22;2334;48.710;9.622;2023-12-20T11:25:45;6.00;99.90
4643;DHT22;2334;48.710;9.622;2023-12-20T11:28:13;6.10;99.90
4643;DHT22;2334;48.710;9.622;2023-12-20T11:30:46;6.00;99.90
4643;DHT22;2334;48.710;9.622;2023-12-20T11:33:13;6.10;99.90
4643;DHT22;2334;48.710;9.622;2023-12-20T11:35:41;6.10;99.90
4643;DHT22;2334;48.710;9.622;2023-12-20T11:38:08;6.00;99.90
4643;DHT22;2334;48.710;9.622;2023-12-20T11:40:37;6.10;99.90
4643;DHT22;2334;48.710;9.622;2023-12-20T11:43:04;6.00;99.90
4643;DHT22;2334;48.710;9.622;2023-12-20T11:45:31;6.00;99.90
4643;DHT22;2334;48.710;9.622;2023-12-20T11:48:00;6.00;99.90
4643;DHT22;2334;48.710;9.622;2023-12-20T11:50:28;6.00;99.90
4643;DHT22;2334;48.710;9.622;2023-12-20T11:52:56;6.00;99.90
4643;DHT22;2334;48.710;9.622;2023-12-20T11:55:24;5.90;99.90
4643;DHT22;2334;48.710;9.622;2023-12-20T11:57:52;6.00;99.90
4643;DHT22;2334;48.710;9.622;2023-12-20T12:00:19;5.90;99.90
4643;DHT22;2334;48.710;9.622;2023-12-20T12:02:56;5.90;99.90
4643;DHT22;2334;48.710;9.622;2023-12-20T12:05:23;5.90;99.90
4643;DHT22;2334;48.710;9.622;2023-12-20T12:07:51;5.90;99.90
4643;DHT22;2334;48.710;9.622;2023-12-20T12:10:18;5.80;99.90
4643;DHT22;2334;48.710;9.622;2023-12-20T12:12:45;5.70;99.90
4643;DHT22;2334;48.710;9.622;2023-12-20T12:15:14;5.80;99.90
4643;DHT22;2334;48.710;9.622;2023-12-20T12:17:41;5.80;99.90
4643;DHT22;2334;48.710;9.622;2023-12-20T12:20:08;5.80;99.90
4643;DHT22;2334;48.710;9.622;2023-12-20T12:22:35;5.70;99.90
4643;DHT22;2334;48.710;9.622;2023-12-20T12:25:10;5.70;99.90
4643;DHT22;2334;48.710;9.622;2023-12-20T12:27:39;5.70;99.90
4643;DHT22;2334;48.710;9.622;2023-12-20T12:30:06;5.60;99.90
4643;DHT22;2334;48.710;9.622;2023-12-20T12:32:41;5.70;99.90
4643;DHT22;2334;48.710;9.622;2023-12-20T12:35:08;5.70;99.90
4643;DHT22;2334;48.710;9.622;2023-12-20T12:37:37;5.70;99.90
4643;DHT22;2334;48.710;9.622;2023-12-20T12:40:05;5.70;99.90
4643;DHT22;2334;48.710;9.622;2023-12-20T12:42:32;5.60;99.90
4643;DHT22;2334;48.710;9.622;2023-12-20T12:44:59;5.70;99.90
4643;DHT22;2334;48.710;9.622;2023-12-20T12:47:26;5.60;99.90
4643;DHT22;2334;48.710;9.622;2023-12-20T12:49:55;5.70;99.90
4643;DHT22;2334;48.710;9.622;2023-12-20T12:52:22;5.70;99.90
4643;DHT22;2334;48.710;9.622;2023-12-20T12:54:50;5.70;99.90
4643;DHT22;2334;48.710;9.622;2023-12-20T12:57:20;5.60;99.90
4643;DHT22;2334;48.710;9.622;2023-12-20T12:59:47;5.60;99.90
4643;DHT22;2334;48.710;9.622;2023-12-20T13:02:14;5.50;99.90
4643;DHT22;2334;48.710;9.622;2023-12-20T13:04:41;5.50;99.90
4643;DHT22;2334;48.710;9.622;2023-12-20T13:07:10;5.50;99.90
4643;DHT22;2334;48.710;9.622;2023-12-20T13:09:38;5.40;99.90
4643;DHT22;2334;48.710;9.622;2023-12-20T13:12:05;5.40;99.90
4643;DHT22;2334;48.710;9.622;2023-12-20T13:14:33;5.50;99.90
4643;DHT22;2334;48.710;9.622;2023-12-20T13:17:02;5.50;99.90
4643;DHT22;2334;48.710;9.622;2023-12-20T13:19:30;5.50;99.90
4643;DHT22;2334;48.710;9.622;2023-12-20T13:21:57;5.60;99.90
4643;DHT22;2334;48.710;9.622;2023-12-20T13:24:26;5.60;99.90
4643;DHT22;2334;48.710;9.622;2023-12-20T13:26:52;5.60;99.90
4643;DHT22;2334;48.710;9.622;2023-12-20T13:29:22;5.60;99.90
4643;DHT22;2334;48.710;9.622;2023-12-20T13:31:49;5.60;99.90
4643;DHT22;2334;48.710;9.622;2023-12-20T13:34:16;5.60;99.90
4643;DHT22;2334;48.710;9.622;2023-12-20T13:36:43;5.60;99.90
4643;DHT22;2334;48.710;9.622;2023-12-20T13:39:13;5.60;99.90
4643;DHT22;2334;48.710;9.622;2023-12-20T13:41:42;5.60;99.90
4643;DHT22;2334;48.710;9.622;2023-12-20T13:44:09;5.60;99.90
4643;DHT22;2334;48.710;9.622;2023-12-20T13:46:37;5.60;99.90
4643;DHT22;2334;48.710;9.622;2023-12-20T13:49:04;5.60;99.90
4643;DHT22;2334;48.710;9.622;2023-12-20T13:51:31;5.60;99.90
4643;DHT22;2334;48.710;9.622;2023-12-20T13:53:58;5.60;99.90
4643;DHT22;2334;48.710;9.622;2023-12-20T13:56:25;5.60;99.90
4643;DHT22;2334;48.710;9.622;2023-12-20T13:58:53;5.60;99.90
4643;DHT22;2334;48.710;9.622;2023-12-20T14:01:20;5.70;99.90
4643;DHT22;2334;48.710;9.622;2023-12-20T14:03:47;5.60;99.90
4643;DHT22;2334;48.710;9.622;2023-12-20T14:06:14;5.60;99.90
4643;DHT22;2334;48.710;9.622;2023-12-20T14:08:41;5.60;99.90
4643;DHT22;2334;48.710;9.622;2023-12-20T14:11:09;5.60;99.90
4643;DHT22;2334;48.710;9.622;2023-12-20T14:13:36;5.60;99.90
4643;DHT22;2334;48.710;9.622;2023-12-20T14:16:05;5.70;99.90
4643;DHT22;2334;48.710;9.622;2023-12-20T14:18:32;5.60;99.90
4643;DHT22;2334;48.710;9.622;2023-12-20T14:20:59;5.60;99.90
4643;DHT22;2334;48.710;9.622;2023-12-20T14:23:25;5.60;99.90
4643;DHT22;2334;48.710;9.622;2023-12-20T14:25:52;5.60;99.90
4643;DHT22;2334;48.710;9.622;2023-12-20T14:28:21;5.60;99.90
4643;DHT22;2334;48.710;9.622;2023-12-20T14:30:48;5.60;99.90
4643;DHT22;2334;48.710;9.622;2023-12-20T14:33:16;5.50;99.90
4643;DHT22;2334;48.710;9.622;2023-12-20T14:35:45;5.60;99.90
4643;DHT22;2334;48.710;9.622;2023-12-20T14:38:12;5.60;99.90
4643;DHT22;2334;48.710;9.622;2023-12-20T14:40:40;5.50;99.90
4643;DHT22;2334;48.710;9.622;2023-12-20T14:43:07;5.60;99.90
4643;DHT22;2334;48.710;9.622;2023-12-20T14:45:34;5.50;99.90
4643;DHT22;2334;48.710;9.622;2023-12-20T14:48:01;5.50;99.90
4643;DHT22;2334;48.710;9.622;2023-12-20T14:50:30;5.50;99.90
4643;DHT22;2334;48.710;9.622;2023-12-20T14:52:56;5.50;99.90
4643;DHT22;2334;48.710;9.622;2023-12-20T14:55:24;5.60;99.90
4643;DHT22;2334;48.710;9.622;2023-12-20T14:57:52;5.50;99.90
4643;DHT22;2334;48.710;9.622;2023-12-20T15:00:19;5.50;99.90
4643;DHT22;2334;48.710;9.622;2023-12-20T15:02:46;5.60;99.90
4643;DHT22;2334;48.710;9.622;2023-12-20T15:05:13;5.60;99.90
4643;DHT22;2334;48.710;9.622;2023-12-20T15:07:42;5.60;99.90
4643;DHT22;2334;48.710;9.622;2023-12-20T15:10:09;5.60;99.90
4643;DHT22;2334;48.710;9.622;2023-12-20T15:12:36;5.60;99.90
4643;DHT22;2334;48.710;9.622;2023-12-20T15:15:03;5.60;99.90
4643;DHT22;2334;48.710;9.622;2023-12-20T15:17:30;5.60;99.90
4643;DHT22;2334;48.710;9.622;2023-12-20T15:19:57;5.60;99.90
4643;DHT22;2334;48.710;9.622;2023-12-20T15:22:24;5.50;99.90
4643;DHT22;2334;48.710;9.622;2023-12-20T15:24:53;5.50;99.90
4643;DHT22;2334;48.710;9.622;2023-12-20T15:27:20;5.50;99.90
4643;DHT22;2334;48.710;9.622;2023-12-20T15:29:47;5.50;99.90
4643;DHT22;2334;48.710;9.622;2023-12-20T15:32:15;5.50;99.90
4643;DHT22;2334;48.710;9.622;2023-12-20T15:34:44;5.50;99.90
4643;DHT22;2334;48.710;9.622;2023-12-20T15:37:11;5.50;99.90
4643;DHT22;2334;48.710;9.622;2023-12-20T15:39:38;5.50;99.90
4643;DHT22;2334;48.710;9.622;2023-12-20T15:42:06;5.50;99.90
4643;DHT22;2334;48.710;9.622;2023-12-20T15:44:33;5.40;99.90
4643;DHT22;2334;48.710;9.622;2023-12-20T15:47:00;5.40;99.90
4643;DHT22;2334;48.710;9.622;2023-12-20T15:49:26;5.40;99.90
4643;DHT22;2334;48.710;9.622;2023-12-20T15:51:53;5.40;99.90
4643;DHT22;2334;48.710;9.622;2023-12-20T15:54:20;5.40;99.90
4643;DHT22;2334;48.710;9.622;2023-12-20T15:56:47;5.30;99.90
4643;DHT22;2334;48.710;9.622;2023-12-20T15:59:15;5.30;99.90
4643;DHT22;2334;48.710;9.622;2023-12-20T16:01:42;5.30;99.90
4643;DHT22;2334;48.710;9.622;2023-12-20T16:04:09;5.20;99.90
4643;DHT22;2334;48.710;9.622;2023-12-20T16:06:36;5.20;99.90
4643;DHT22;2334;48.710;9.622;2023-12-20T16:09:02;5.20;99.90
4643;DHT22;2334;48.710;9.622;2023-12-20T16:11:29;5.20;99.90
4643;DHT22;2334;48.710;9.622;2023-12-20T16:13:56;5.20;99.90
4643;DHT22;2334;48.710;9.622;2023-12-20T16:16:25;5.20;99.90
4643;DHT22;2334;48.710;9.622;2023-12-20T16:18:51;5.20;99.90